sensor_id;sensor_type;location;lat;lon;timestamp;P1;durP1;ratioP1;P2;durP2;ratioP2
26113;SDS011;13966;48.828;9.064;2023-02-28T00:02:15;5.55;;;3.38;;
26113;SDS011;13966;48.828;9.064;2023-02-28T00:04:42;7.03;;;3.47;;
26113;SDS011;13966;48.828;9.064;2023-02-28T00:07:08;6.10;;;3.53;;
26113;SDS011;13966;48.828;9.064;2023-02-28T00:09:34;5.90;;;3.92;;
26113;SDS011;13966;48.828;9.064;2023-02-28T00:12:00;7.32;;;4.00;;
26113;SDS011;13966;48.828;9.064;2023-02-28T00:14:35;6.63;;;3.80;;
26113;SDS011;13966;48.828;9.064;2023-02-28T00:17:01;7.30;;;3.95;;
26113;SDS011;13966;48.828;9.064;2023-02-28T00:19:27;7.50;;;3.65;;
26113;SDS011;13966;48.828;9.064;2023-02-28T00:21:53;7.00;;;3.80;;
26113;SDS011;13966;48.828;9.064;2023-02-28T00:24:19;6.43;;;3.65;;
26113;SDS011;13966;48.828;9.064;2023-02-28T00:26:45;5.57;;;3.63;;
26113;SDS011;13966;48.828;9.064;2023-02-28T00:29:11;7.57;;;3.95;;
26113;SDS011;13966;48.828;9.064;2023-02-28T00:31:37;8.23;;;4.03;;
26113;SDS011;13966;48.828;9.064;2023-02-28T00:34:03;6.68;;;4.25;;
26113;SDS011;13966;48.828;9.064;2023-02-28T00:36:30;7.20;;;4.50;;
26113;SDS011;13966;48.828;9.064;2023-02-28T00:38:56;7.30;;;4.47;;
26113;SDS011;13966;48.828;9.064;2023-02-28T00:41:22;5.60;;;4.53;;
26113;SDS011;13966;48.828;9.064;2023-02-28T00:43:48;7.18;;;4.50;;
26113;SDS011;13966;48.828;9.064;2023-02-28T00:46:14;5.30;;;3.67;;
26113;SDS011;13966;48.828;9.064;2023-02-28T00:48:40;7.68;;;3.58;;
26113;SDS011;13966;48.828;9.064;2023-02-28T00:51:06;6.10;;;3.85;;
26113;SDS011;13966;48.828;9.064;2023-02-28T00:53:32;8.05;;;4.43;;
26113;SDS011;13966;48.828;9.064;2023-02-28T00:55:58;6.70;;;3.95;;
26113;SDS011;13966;48.828;9.064;2023-02-28T00:58:24;5.43;;;3.67;;
26113;SDS011;13966;48.828;9.064;2023-02-28T01:00:51;8.18;;;4.50;;
26113;SDS011;13966;48.828;9.064;2023-02-28T01:03:18;6.95;;;4.05;;
26113;SDS011;13966;48.828;9.064;2023-02-28T01:05:45;7.85;;;4.60;;
26113;SDS011;13966;48.828;9.064;2023-02-28T01:08:11;6.00;;;4.32;;
26113;SDS011;13966;48.828;9.064;2023-02-28T01:10:38;7.30;;;4.50;;
26113;SDS011;13966;48.828;9.064;2023-02-28T01:13:04;6.22;;;4.45;;
26113;SDS011;13966;48.828;9.064;2023-02-28T01:15:31;6.50;;;4.40;;
26113;SDS011;13966;48.828;9.064;2023-02-28T01:17:57;7.50;;;4.88;;
26113;SDS011;13966;48.828;9.064;2023-02-28T01:20:23;6.18;;;4.25;;
26113;SDS011;13966;48.828;9.064;2023-02-28T01:22:49;6.53;;;4.47;;
26113;SDS011;13966;48.828;9.064;2023-02-28T01:25:15;8.98;;;4.60;;
26113;SDS011;13966;48.828;9.064;2023-02-28T01:27:42;6.15;;;4.60;;
26113;SDS011;13966;48.828;9.064;2023-02-28T01:30:08;7.53;;;4.68;;
26113;SDS011;13966;48.828;9.064;2023-02-28T01:32:35;8.32;;;4.85;;
26113;SDS011;13966;48.828;9.064;2023-02-28T01:35:01;7.80;;;4.78;;
26113;SDS011;13966;48.828;9.064;2023-02-28T01:37:27;8.55;;;4.72;;
26113;SDS011;13966;48.828;9.064;2023-02-28T01:39:53;8.80;;;4.38;;
26113;SDS011;13966;48.828;9.064;2023-02-28T01:42:19;7.10;;;4.88;;
26113;SDS011;13966;48.828;9.064;2023-02-28T01:45:03;7.43;;;4.78;;
26113;SDS011;13966;48.828;9.064;2023-02-28T01:47:31;7.90;;;4.78;;
26113;SDS011;13966;48.828;9.064;2023-02-28T01:49:58;8.98;;;4.85;;
26113;SDS011;13966;48.828;9.064;2023-02-28T01:52:24;6.25;;;4.65;;
26113;SDS011;13966;48.828;9.064;2023-02-28T01:54:52;7.85;;;4.97;;
26113;SDS011;13966;48.828;9.064;2023-02-28T01:57:21;8.32;;;4.80;;
26113;SDS011;13966;48.828;9.064;2023-02-28T01:59:50;7.03;;;4.57;;
26113;SDS011;13966;48.828;9.064;2023-02-28T02:02:18;11.68;;;5.50;;
26113;SDS011;13966;48.828;9.064;2023-02-28T02:04:55;6.10;;;4.63;;
26113;SDS011;13966;48.828;9.064;2023-02-28T02:07:22;9.15;;;4.95;;
26113;SDS011;13966;48.828;9.064;2023-02-28T02:09:49;7.47;;;4.85;;
26113;SDS011;13966;48.828;9.064;2023-02-28T02:12:22;6.55;;;4.72;;
26113;SDS011;13966;48.828;9.064;2023-02-28T02:14:55;9.02;;;5.00;;
26113;SDS011;13966;48.828;9.064;2023-02-28T02:17:34;6.20;;;4.43;;
26113;SDS011;13966;48.828;9.064;2023-02-28T02:38:08;8.50;;;5.32;;
26113;SDS011;13966;48.828;9.064;2023-02-28T02:40:37;8.18;;;5.10;;
26113;SDS011;13966;48.828;9.064;2023-02-28T02:43:07;7.32;;;4.78;;
26113;SDS011;13966;48.828;9.064;2023-02-28T02:45:35;7.82;;;5.13;;
26113;SDS011;13966;48.828;9.064;2023-02-28T02:48:04;7.70;;;5.27;;
26113;SDS011;13966;48.828;9.064;2023-02-28T02:50:54;10.80;;;5.53;;
26113;SDS011;13966;48.828;9.064;2023-02-28T02:53:19;7.97;;;4.82;;
26113;SDS011;13966;48.828;9.064;2023-02-28T02:55:47;6.70;;;4.95;;
26113;SDS011;13966;48.828;9.064;2023-02-28T02:58:17;7.68;;;4.97;;
26113;SDS011;13966;48.828;9.064;2023-02-28T03:00:46;7.15;;;4.72;;
26113;SDS011;13966;48.828;9.064;2023-02-28T03:03:13;7.18;;;4.80;;
26113;SDS011;13966;48.828;9.064;2023-02-28T03:05:44;8.43;;;5.03;;
26113;SDS011;13966;48.828;9.064;2023-02-28T03:08:11;9.25;;;5.15;;
26113;SDS011;13966;48.828;9.064;2023-02-28T03:10:39;6.63;;;4.97;;
26113;SDS011;13966;48.828;9.064;2023-02-28T03:18:24;8.65;;;5.65;;
26113;SDS011;13966;48.828;9.064;2023-02-28T03:21:19;7.43;;;5.25;;
26113;SDS011;13966;48.828;9.064;2023-02-28T03:23:44;6.55;;;5.13;;
26113;SDS011;13966;48.828;9.064;2023-02-28T03:26:17;6.35;;;5.03;;
26113;SDS011;13966;48.828;9.064;2023-02-28T03:31:30;7.55;;;5.10;;
26113;SDS011;13966;48.828;9.064;2023-02-28T03:34:17;8.50;;;5.22;;
26113;SDS011;13966;48.828;9.064;2023-02-28T03:36:47;8.68;;;5.60;;
26113;SDS011;13966;48.828;9.064;2023-02-28T03:39:15;11.10;;;6.05;;
26113;SDS011;13966;48.828;9.064;2023-02-28T03:41:45;9.15;;;5.75;;
26113;SDS011;13966;48.828;9.064;2023-02-28T03:44:16;8.55;;;6.22;;
26113;SDS011;13966;48.828;9.064;2023-02-28T03:46:46;10.30;;;5.75;;
26113;SDS011;13966;48.828;9.064;2023-02-28T03:49:15;7.80;;;5.30;;
26113;SDS011;13966;48.828;9.064;2023-02-28T03:51:42;12.25;;;6.25;;
26113;SDS011;13966;48.828;9.064;2023-02-28T03:54:15;10.18;;;6.07;;
26113;SDS011;13966;48.828;9.064;2023-02-28T03:56:53;8.38;;;5.72;;
26113;SDS011;13966;48.828;9.064;2023-02-28T03:59:27;8.38;;;5.82;;
26113;SDS011;13966;48.828;9.064;2023-02-28T04:01:54;11.27;;;5.68;;
26113;SDS011;13966;48.828;9.064;2023-02-28T04:04:23;12.23;;;6.28;;
26113;SDS011;13966;48.828;9.064;2023-02-28T04:06:49;8.15;;;5.78;;
26113;SDS011;13966;48.828;9.064;2023-02-28T04:09:16;11.20;;;6.80;;
26113;SDS011;13966;48.828;9.064;2023-02-28T04:11:42;8.88;;;5.85;;
26113;SDS011;13966;48.828;9.064;2023-02-28T04:14:10;11.48;;;6.38;;
26113;SDS011;13966;48.828;9.064;2023-02-28T04:16:38;9.00;;;5.90;;
26113;SDS011;13966;48.828;9.064;2023-02-28T04:19:04;9.38;;;5.90;;
26113;SDS011;13966;48.828;9.064;2023-02-28T04:21:35;16.38;;;6.85;;
26113;SDS011;13966;48.828;9.064;2023-02-28T04:24:01;16.60;;;6.60;;
26113;SDS011;13966;48.828;9.064;2023-02-28T04:26:31;18.20;;;8.05;;
26113;SDS011;13966;48.828;9.064;2023-02-28T04:28:58;16.30;;;7.53;;
26113;SDS011;13966;48.828;9.064;2023-02-28T04:31:24;12.70;;;8.05;;
26113;SDS011;13966;48.828;9.064;2023-02-28T04:33:50;12.93;;;8.10;;
26113;SDS011;13966;48.828;9.064;2023-02-28T04:36:16;10.52;;;7.00;;
26113;SDS011;13966;48.828;9.064;2023-02-28T04:38:45;11.55;;;7.45;;
26113;SDS011;13966;48.828;9.064;2023-02-28T04:41:14;11.48;;;6.80;;
26113;SDS011;13966;48.828;9.064;2023-02-28T04:43:40;9.85;;;6.30;;
26113;SDS011;13966;48.828;9.064;2023-02-28T04:46:06;9.85;;;6.75;;
26113;SDS011;13966;48.828;9.064;2023-02-28T04:48:34;8.90;;;6.50;;
26113;SDS011;13966;48.828;9.064;2023-02-28T04:51:04;10.57;;;6.07;;
26113;SDS011;13966;48.828;9.064;2023-02-28T04:53:30;8.95;;;6.30;;
26113;SDS011;13966;48.828;9.064;2023-02-28T04:55:57;10.70;;;6.63;;
26113;SDS011;13966;48.828;9.064;2023-02-28T04:58:23;8.18;;;6.10;;
26113;SDS011;13966;48.828;9.064;2023-02-28T05:00:49;9.80;;;6.53;;
26113;SDS011;13966;48.828;9.064;2023-02-28T05:03:15;12.40;;;6.75;;
26113;SDS011;13966;48.828;9.064;2023-02-28T05:05:41;11.38;;;6.80;;
26113;SDS011;13966;48.828;9.064;2023-02-28T05:08:07;8.85;;;6.57;;
26113;SDS011;13966;48.828;9.064;2023-02-28T05:10:34;8.63;;;6.18;;
26113;SDS011;13966;48.828;9.064;2023-02-28T05:13:00;11.82;;;6.82;;
26113;SDS011;13966;48.828;9.064;2023-02-28T05:15:26;9.60;;;6.45;;
26113;SDS011;13966;48.828;9.064;2023-02-28T05:17:52;8.07;;;6.25;;
26113;SDS011;13966;48.828;9.064;2023-02-28T05:20:19;10.38;;;6.65;;
26113;SDS011;13966;48.828;9.064;2023-02-28T05:22:46;10.13;;;6.68;;
26113;SDS011;13966;48.828;9.064;2023-02-28T05:25:13;10.27;;;6.65;;
26113;SDS011;13966;48.828;9.064;2023-02-28T05:27:41;14.93;;;6.90;;
26113;SDS011;13966;48.828;9.064;2023-02-28T05:30:07;9.73;;;7.22;;
26113;SDS011;13966;48.828;9.064;2023-02-28T05:32:38;11.98;;;7.05;;
26113;SDS011;13966;48.828;9.064;2023-02-28T05:35:07;9.63;;;7.20;;
26113;SDS011;13966;48.828;9.064;2023-02-28T05:37:33;11.75;;;7.07;;
26113;SDS011;13966;48.828;9.064;2023-02-28T05:39:59;11.95;;;7.63;;
26113;SDS011;13966;48.828;9.064;2023-02-28T05:42:25;13.82;;;8.15;;
26113;SDS011;13966;48.828;9.064;2023-02-28T05:44:52;11.20;;;6.95;;
26113;SDS011;13966;48.828;9.064;2023-02-28T05:47:18;9.35;;;6.80;;
26113;SDS011;13966;48.828;9.064;2023-02-28T05:49:44;10.82;;;7.35;;
26113;SDS011;13966;48.828;9.064;2023-02-28T05:52:10;15.55;;;8.30;;
26113;SDS011;13966;48.828;9.064;2023-02-28T05:54:36;8.35;;;6.47;;
26113;SDS011;13966;48.828;9.064;2023-02-28T05:57:02;10.73;;;7.13;;
26113;SDS011;13966;48.828;9.064;2023-02-28T05:59:28;10.93;;;7.25;;
26113;SDS011;13966;48.828;9.064;2023-02-28T06:01:54;12.07;;;7.20;;
26113;SDS011;13966;48.828;9.064;2023-02-28T06:04:20;11.32;;;7.35;;
26113;SDS011;13966;48.828;9.064;2023-02-28T06:06:47;10.98;;;7.28;;
26113;SDS011;13966;48.828;9.064;2023-02-28T06:09:13;10.00;;;6.72;;
26113;SDS011;13966;48.828;9.064;2023-02-28T06:11:40;12.00;;;7.55;;
26113;SDS011;13966;48.828;9.064;2023-02-28T06:14:06;12.38;;;7.22;;
26113;SDS011;13966;48.828;9.064;2023-02-28T06:16:33;11.32;;;7.57;;
26113;SDS011;13966;48.828;9.064;2023-02-28T06:19:00;11.80;;;7.80;;
26113;SDS011;13966;48.828;9.064;2023-02-28T06:21:26;11.60;;;6.68;;
26113;SDS011;13966;48.828;9.064;2023-02-28T06:23:52;11.70;;;7.47;;
26113;SDS011;13966;48.828;9.064;2023-02-28T06:26:19;10.48;;;7.10;;
26113;SDS011;13966;48.828;9.064;2023-02-28T06:28:45;9.18;;;6.70;;
26113;SDS011;13966;48.828;9.064;2023-02-28T06:31:12;11.32;;;6.78;;
26113;SDS011;13966;48.828;9.064;2023-02-28T06:33:39;9.98;;;6.85;;
26113;SDS011;13966;48.828;9.064;2023-02-28T06:36:06;10.38;;;7.43;;
26113;SDS011;13966;48.828;9.064;2023-02-28T06:38:32;11.18;;;7.63;;
26113;SDS011;13966;48.828;9.064;2023-02-28T06:40:59;12.50;;;7.63;;
26113;SDS011;13966;48.828;9.064;2023-02-28T06:43:26;10.90;;;7.70;;
26113;SDS011;13966;48.828;9.064;2023-02-28T06:45:57;12.10;;;7.53;;
26113;SDS011;13966;48.828;9.064;2023-02-28T06:48:23;12.13;;;7.88;;
26113;SDS011;13966;48.828;9.064;2023-02-28T06:50:49;12.07;;;8.07;;
26113;SDS011;13966;48.828;9.064;2023-02-28T06:53:16;11.68;;;8.20;;
26113;SDS011;13966;48.828;9.064;2023-02-28T06:55:42;15.15;;;8.05;;
26113;SDS011;13966;48.828;9.064;2023-02-28T06:58:08;11.50;;;7.93;;
26113;SDS011;13966;48.828;9.064;2023-02-28T07:00:42;13.07;;;8.30;;
26113;SDS011;13966;48.828;9.064;2023-02-28T07:03:09;13.55;;;7.65;;
26113;SDS011;13966;48.828;9.064;2023-02-28T07:05:35;10.77;;;7.60;;
26113;SDS011;13966;48.828;9.064;2023-02-28T07:08:02;11.50;;;7.63;;
26113;SDS011;13966;48.828;9.064;2023-02-28T07:10:28;12.57;;;8.15;;
26113;SDS011;13966;48.828;9.064;2023-02-28T07:12:54;10.48;;;7.50;;
26113;SDS011;13966;48.828;9.064;2023-02-28T07:15:20;11.27;;;8.23;;
26113;SDS011;13966;48.828;9.064;2023-02-28T07:17:46;12.40;;;7.40;;
26113;SDS011;13966;48.828;9.064;2023-02-28T07:20:12;12.20;;;7.95;;
26113;SDS011;13966;48.828;9.064;2023-02-28T07:22:38;12.50;;;8.18;;
26113;SDS011;13966;48.828;9.064;2023-02-28T07:25:05;12.57;;;7.70;;
26113;SDS011;13966;48.828;9.064;2023-02-28T07:27:31;11.82;;;8.00;;
26113;SDS011;13966;48.828;9.064;2023-02-28T07:29:57;12.15;;;8.18;;
26113;SDS011;13966;48.828;9.064;2023-02-28T07:32:26;11.77;;;8.30;;
26113;SDS011;13966;48.828;9.064;2023-02-28T07:34:52;12.10;;;7.78;;
26113;SDS011;13966;48.828;9.064;2023-02-28T07:37:18;13.13;;;7.97;;
26113;SDS011;13966;48.828;9.064;2023-02-28T07:39:44;14.10;;;8.40;;
26113;SDS011;13966;48.828;9.064;2023-02-28T07:42:10;15.05;;;8.90;;
26113;SDS011;13966;48.828;9.064;2023-02-28T07:44:40;13.93;;;8.60;;
26113;SDS011;13966;48.828;9.064;2023-02-28T07:47:10;15.38;;;8.20;;
26113;SDS011;13966;48.828;9.064;2023-02-28T07:49:36;12.68;;;7.90;;
26113;SDS011;13966;48.828;9.064;2023-02-28T07:52:06;14.82;;;8.40;;
26113;SDS011;13966;48.828;9.064;2023-02-28T07:54:32;16.52;;;8.70;;
26113;SDS011;13966;48.828;9.064;2023-02-28T07:56:58;13.82;;;8.63;;
26113;SDS011;13966;48.828;9.064;2023-02-28T07:59:24;14.77;;;8.32;;
26113;SDS011;13966;48.828;9.064;2023-02-28T08:01:50;13.55;;;8.43;;
26113;SDS011;13966;48.828;9.064;2023-02-28T08:04:17;11.90;;;7.82;;
26113;SDS011;13966;48.828;9.064;2023-02-28T08:06:43;12.38;;;8.25;;
26113;SDS011;13966;48.828;9.064;2023-02-28T08:09:10;15.43;;;8.88;;
26113;SDS011;13966;48.828;9.064;2023-02-28T08:11:36;11.88;;;8.40;;
26113;SDS011;13966;48.828;9.064;2023-02-28T08:14:02;11.95;;;8.55;;
26113;SDS011;13966;48.828;9.064;2023-02-28T08:16:28;16.25;;;8.75;;
26113;SDS011;13966;48.828;9.064;2023-02-28T08:18:54;13.48;;;8.93;;
26113;SDS011;13966;48.828;9.064;2023-02-28T08:21:20;18.13;;;9.70;;
26113;SDS011;13966;48.828;9.064;2023-02-28T08:23:47;14.63;;;9.02;;
26113;SDS011;13966;48.828;9.064;2023-02-28T08:26:14;13.23;;;8.63;;
26113;SDS011;13966;48.828;9.064;2023-02-28T08:28:40;14.68;;;8.48;;
26113;SDS011;13966;48.828;9.064;2023-02-28T08:31:09;21.75;;;10.75;;
26113;SDS011;13966;48.828;9.064;2023-02-28T08:33:36;14.40;;;9.02;;
26113;SDS011;13966;48.828;9.064;2023-02-28T08:36:02;13.40;;;8.52;;
26113;SDS011;13966;48.828;9.064;2023-02-28T08:38:28;13.15;;;8.38;;
26113;SDS011;13966;48.828;9.064;2023-02-28T08:40:58;15.43;;;9.32;;
26113;SDS011;13966;48.828;9.064;2023-02-28T08:43:24;13.25;;;8.93;;
26113;SDS011;13966;48.828;9.064;2023-02-28T08:45:54;12.02;;;8.48;;
26113;SDS011;13966;48.828;9.064;2023-02-28T08:48:21;14.82;;;9.30;;
26113;SDS011;13966;48.828;9.064;2023-02-28T08:51:04;15.23;;;8.93;;
26113;SDS011;13966;48.828;9.064;2023-02-28T08:53:30;14.10;;;8.88;;
26113;SDS011;13966;48.828;9.064;2023-02-28T08:56:01;12.50;;;9.27;;
26113;SDS011;13966;48.828;9.064;2023-02-28T09:00:53;16.10;;;9.57;;
26113;SDS011;13966;48.828;9.064;2023-02-28T09:03:19;15.25;;;9.13;;
26113;SDS011;13966;48.828;9.064;2023-02-28T09:05:52;13.23;;;8.68;;
26113;SDS011;13966;48.828;9.064;2023-02-28T09:08:18;15.30;;;8.73;;
26113;SDS011;13966;48.828;9.064;2023-02-28T09:10:44;16.20;;;9.38;;
26113;SDS011;13966;48.828;9.064;2023-02-28T09:13:10;16.13;;;9.55;;
26113;SDS011;13966;48.828;9.064;2023-02-28T09:15:37;17.02;;;9.57;;
26113;SDS011;13966;48.828;9.064;2023-02-28T09:18:03;14.30;;;9.57;;
26113;SDS011;13966;48.828;9.064;2023-02-28T09:20:29;14.80;;;9.75;;
26113;SDS011;13966;48.828;9.064;2023-02-28T09:22:55;19.58;;;9.25;;
26113;SDS011;13966;48.828;9.064;2023-02-28T09:25:21;12.85;;;9.30;;
26113;SDS011;13966;48.828;9.064;2023-02-28T09:27:47;14.75;;;9.45;;
26113;SDS011;13966;48.828;9.064;2023-02-28T09:30:13;13.45;;;9.25;;
26113;SDS011;13966;48.828;9.064;2023-02-28T09:32:39;14.00;;;9.20;;
26113;SDS011;13966;48.828;9.064;2023-02-28T09:35:06;18.05;;;9.93;;
26113;SDS011;13966;48.828;9.064;2023-02-28T09:37:32;13.43;;;8.52;;
26113;SDS011;13966;48.828;9.064;2023-02-28T09:39:58;16.70;;;9.70;;
26113;SDS011;13966;48.828;9.064;2023-02-28T09:42:25;16.02;;;10.27;;
26113;SDS011;13966;48.828;9.064;2023-02-28T09:44:53;16.17;;;9.73;;
26113;SDS011;13966;48.828;9.064;2023-02-28T09:49:51;16.75;;;9.88;;
26113;SDS011;13966;48.828;9.064;2023-02-28T09:52:18;15.60;;;9.05;;
26113;SDS011;13966;48.828;9.064;2023-02-28T09:54:45;15.80;;;10.15;;
26113;SDS011;13966;48.828;9.064;2023-02-28T09:57:17;13.30;;;9.55;;
26113;SDS011;13966;48.828;9.064;2023-02-28T10:07:45;14.40;;;9.93;;
26113;SDS011;13966;48.828;9.064;2023-02-28T10:10:27;13.90;;;9.20;;
26113;SDS011;13966;48.828;9.064;2023-02-28T10:12:55;14.65;;;9.45;;
26113;SDS011;13966;48.828;9.064;2023-02-28T10:15:22;18.00;;;9.93;;
26113;SDS011;13966;48.828;9.064;2023-02-28T10:17:51;12.57;;;8.90;;
26113;SDS011;13966;48.828;9.064;2023-02-28T10:20:20;14.57;;;9.30;;
26113;SDS011;13966;48.828;9.064;2023-02-28T10:22:52;14.77;;;8.60;;
26113;SDS011;13966;48.828;9.064;2023-02-28T10:25:20;13.27;;;9.35;;
26113;SDS011;13966;48.828;9.064;2023-02-28T10:27:46;12.52;;;9.25;;
26113;SDS011;13966;48.828;9.064;2023-02-28T10:30:13;18.13;;;10.43;;
26113;SDS011;13966;48.828;9.064;2023-02-28T10:32:39;13.38;;;9.23;;
26113;SDS011;13966;48.828;9.064;2023-02-28T10:35:27;12.35;;;9.50;;
26113;SDS011;13966;48.828;9.064;2023-02-28T10:37:59;15.45;;;9.63;;
26113;SDS011;13966;48.828;9.064;2023-02-28T10:40:31;15.65;;;9.80;;
26113;SDS011;13966;48.828;9.064;2023-02-28T10:42:58;13.57;;;9.15;;
26113;SDS011;13966;48.828;9.064;2023-02-28T10:45:25;13.38;;;9.57;;
26113;SDS011;13966;48.828;9.064;2023-02-28T10:55:40;15.18;;;9.13;;
26113;SDS011;13966;48.828;9.064;2023-02-28T10:58:22;14.93;;;9.13;;
26113;SDS011;13966;48.828;9.064;2023-02-28T11:00:48;14.75;;;9.95;;
26113;SDS011;13966;48.828;9.064;2023-02-28T11:03:25;14.20;;;8.98;;
26113;SDS011;13966;48.828;9.064;2023-02-28T11:05:51;15.52;;;9.68;;
26113;SDS011;13966;48.828;9.064;2023-02-28T11:08:17;14.45;;;9.10;;
26113;SDS011;13966;48.828;9.064;2023-02-28T11:10:45;12.50;;;9.40;;
26113;SDS011;13966;48.828;9.064;2023-02-28T11:13:19;13.20;;;9.07;;
26113;SDS011;13966;48.828;9.064;2023-02-28T11:15:55;12.50;;;9.10;;
26113;SDS011;13966;48.828;9.064;2023-02-28T11:20:49;13.85;;;8.63;;
26113;SDS011;13966;48.828;9.064;2023-02-28T11:23:16;11.95;;;9.40;;
26113;SDS011;13966;48.828;9.064;2023-02-28T11:25:47;16.00;;;9.75;;
26113;SDS011;13966;48.828;9.064;2023-02-28T11:28:23;13.30;;;9.45;;
26113;SDS011;13966;48.828;9.064;2023-02-28T11:33:27;12.50;;;9.57;;
26113;SDS011;13966;48.828;9.064;2023-02-28T11:35:55;14.15;;;10.18;;
26113;SDS011;13966;48.828;9.064;2023-02-28T11:38:24;12.38;;;8.90;;
26113;SDS011;13966;48.828;9.064;2023-02-28T11:46:05;14.25;;;10.13;;
26113;SDS011;13966;48.828;9.064;2023-02-28T11:56:36;11.98;;;8.68;;
26113;SDS011;13966;48.828;9.064;2023-02-28T12:04:01;13.15;;;9.85;;
26113;SDS011;13966;48.828;9.064;2023-02-28T12:09:11;13.52;;;9.20;;
26113;SDS011;13966;48.828;9.064;2023-02-28T12:11:44;13.02;;;7.22;;
26113;SDS011;13966;48.828;9.064;2023-02-28T12:19:16;10.73;;;7.47;;
26113;SDS011;13966;48.828;9.064;2023-02-28T12:26:47;11.75;;;7.32;;
26113;SDS011;13966;48.828;9.064;2023-02-28T12:29:22;9.10;;;7.18;;
26113;SDS011;13966;48.828;9.064;2023-02-28T12:31:51;10.15;;;7.05;;
26113;SDS011;13966;48.828;9.064;2023-02-28T12:34:20;9.75;;;6.68;;
26113;SDS011;13966;48.828;9.064;2023-02-28T12:36:48;9.90;;;6.65;;
26113;SDS011;13966;48.828;9.064;2023-02-28T12:39:17;9.77;;;7.25;;
26113;SDS011;13966;48.828;9.064;2023-02-28T12:41:54;9.90;;;7.38;;
26113;SDS011;13966;48.828;9.064;2023-02-28T12:44:26;8.82;;;6.80;;
26113;SDS011;13966;48.828;9.064;2023-02-28T12:46:55;10.40;;;7.00;;
26113;SDS011;13966;48.828;9.064;2023-02-28T12:52:09;7.13;;;5.90;;
26113;SDS011;13966;48.828;9.064;2023-02-28T12:59:48;10.40;;;8.07;;
26113;SDS011;13966;48.828;9.064;2023-02-28T13:05:17;7.55;;;6.35;;
26113;SDS011;13966;48.828;9.064;2023-02-28T13:10:15;6.88;;;5.90;;
26113;SDS011;13966;48.828;9.064;2023-02-28T13:12:50;9.13;;;6.05;;
26113;SDS011;13966;48.828;9.064;2023-02-28T13:15:24;6.47;;;5.63;;
26113;SDS011;13966;48.828;9.064;2023-02-28T13:17:53;7.47;;;6.13;;
26113;SDS011;13966;48.828;9.064;2023-02-28T13:20:24;7.10;;;5.60;;
26113;SDS011;13966;48.828;9.064;2023-02-28T13:22:51;8.02;;;6.05;;
26113;SDS011;13966;48.828;9.064;2023-02-28T13:28:02;6.00;;;5.40;;
26113;SDS011;13966;48.828;9.064;2023-02-28T13:35:45;5.50;;;5.00;;
26113;SDS011;13966;48.828;9.064;2023-02-28T13:38:13;6.30;;;5.00;;
26113;SDS011;13966;48.828;9.064;2023-02-28T13:40:40;6.65;;;5.72;;
26113;SDS011;13966;48.828;9.064;2023-02-28T13:43:07;6.43;;;4.65;;
26113;SDS011;13966;48.828;9.064;2023-02-28T13:45:33;6.43;;;5.18;;
26113;SDS011;13966;48.828;9.064;2023-02-28T13:48:14;6.72;;;4.90;;
26113;SDS011;13966;48.828;9.064;2023-02-28T13:50:41;12.88;;;7.85;;
26113;SDS011;13966;48.828;9.064;2023-02-28T13:55:48;8.63;;;6.10;;
26113;SDS011;13966;48.828;9.064;2023-02-28T13:58:27;7.55;;;6.18;;
26113;SDS011;13966;48.828;9.064;2023-02-28T14:01:22;9.88;;;6.65;;
26113;SDS011;13966;48.828;9.064;2023-02-28T14:04:00;10.48;;;7.30;;
26113;SDS011;13966;48.828;9.064;2023-02-28T14:06:30;9.40;;;6.32;;
26113;SDS011;13966;48.828;9.064;2023-02-28T14:08:59;7.82;;;5.25;;
26113;SDS011;13966;48.828;9.064;2023-02-28T14:11:27;5.85;;;5.22;;
26113;SDS011;13966;48.828;9.064;2023-02-28T14:13:54;10.30;;;5.43;;
26113;SDS011;13966;48.828;9.064;2023-02-28T14:16:20;7.22;;;5.20;;
26113;SDS011;13966;48.828;9.064;2023-02-28T14:18:51;20.20;;;6.95;;
26113;SDS011;13966;48.828;9.064;2023-02-28T14:21:22;10.43;;;5.47;;
26113;SDS011;13966;48.828;9.064;2023-02-28T14:29:00;8.70;;;5.90;;
26113;SDS011;13966;48.828;9.064;2023-02-28T14:31:29;7.57;;;5.80;;
26113;SDS011;13966;48.828;9.064;2023-02-28T14:34:05;8.77;;;5.53;;
26113;SDS011;13966;48.828;9.064;2023-02-28T14:36:39;6.20;;;5.60;;
26113;SDS011;13966;48.828;9.064;2023-02-28T14:39:13;7.68;;;5.40;;
26113;SDS011;13966;48.828;9.064;2023-02-28T14:41:41;7.97;;;6.00;;
26113;SDS011;13966;48.828;9.064;2023-02-28T14:46:40;6.40;;;5.65;;
26113;SDS011;13966;48.828;9.064;2023-02-28T14:49:06;7.30;;;5.15;;
26113;SDS011;13966;48.828;9.064;2023-02-28T14:51:32;8.00;;;6.07;;
26113;SDS011;13966;48.828;9.064;2023-02-28T14:53:59;9.70;;;6.43;;
26113;SDS011;13966;48.828;9.064;2023-02-28T14:56:28;9.70;;;6.88;;
26113;SDS011;13966;48.828;9.064;2023-02-28T14:58:56;7.10;;;5.80;;
26113;SDS011;13966;48.828;9.064;2023-02-28T15:01:23;11.38;;;6.00;;
26113;SDS011;13966;48.828;9.064;2023-02-28T15:03:56;7.75;;;6.25;;
26113;SDS011;13966;48.828;9.064;2023-02-28T15:06:23;6.97;;;5.93;;
26113;SDS011;13966;48.828;9.064;2023-02-28T15:09:06;6.40;;;5.80;;
26113;SDS011;13966;48.828;9.064;2023-02-28T15:11:32;8.70;;;6.53;;
26113;SDS011;13966;48.828;9.064;2023-02-28T15:13:58;8.65;;;7.10;;
26113;SDS011;13966;48.828;9.064;2023-02-28T15:16:36;8.82;;;6.70;;
26113;SDS011;13966;48.828;9.064;2023-02-28T15:19:18;8.18;;;6.45;;
26113;SDS011;13966;48.828;9.064;2023-02-28T15:21:46;13.88;;;7.10;;
26113;SDS011;13966;48.828;9.064;2023-02-28T15:27:00;8.63;;;6.95;;
26113;SDS011;13966;48.828;9.064;2023-02-28T15:29:29;13.88;;;7.72;;
26113;SDS011;13966;48.828;9.064;2023-02-28T15:31:57;9.27;;;7.45;;
26113;SDS011;13966;48.828;9.064;2023-02-28T15:34:38;12.20;;;8.52;;
26113;SDS011;13966;48.828;9.064;2023-02-28T15:39:49;13.07;;;8.45;;
26113;SDS011;13966;48.828;9.064;2023-02-28T15:42:19;11.65;;;8.23;;
26113;SDS011;13966;48.828;9.064;2023-02-28T15:44:46;14.63;;;9.87;;
26113;SDS011;13966;48.828;9.064;2023-02-28T15:47:22;12.07;;;8.77;;
26113;SDS011;13966;48.828;9.064;2023-02-28T15:52:27;12.98;;;8.95;;
26113;SDS011;13966;48.828;9.064;2023-02-28T15:54:56;15.07;;;8.90;;
26113;SDS011;13966;48.828;9.064;2023-02-28T15:57:27;15.38;;;8.57;;
26113;SDS011;13966;48.828;9.064;2023-02-28T15:59:58;12.55;;;9.48;;
26113;SDS011;13966;48.828;9.064;2023-02-28T16:02:33;12.00;;;8.85;;
26113;SDS011;13966;48.828;9.064;2023-02-28T16:07:32;13.02;;;8.82;;
26113;SDS011;13966;48.828;9.064;2023-02-28T16:09:59;11.68;;;8.82;;
26113;SDS011;13966;48.828;9.064;2023-02-28T16:12:26;11.90;;;9.43;;
26113;SDS011;13966;48.828;9.064;2023-02-28T16:14:53;13.23;;;9.45;;
26113;SDS011;13966;48.828;9.064;2023-02-28T16:17:20;13.18;;;9.80;;
26113;SDS011;13966;48.828;9.064;2023-02-28T16:19:47;13.18;;;9.80;;
26113;SDS011;13966;48.828;9.064;2023-02-28T16:22:13;10.82;;;9.40;;
26113;SDS011;13966;48.828;9.064;2023-02-28T16:24:39;13.30;;;9.32;;
26113;SDS011;13966;48.828;9.064;2023-02-28T16:27:06;12.73;;;9.65;;
26113;SDS011;13966;48.828;9.064;2023-02-28T16:29:35;15.65;;;9.35;;
26113;SDS011;13966;48.828;9.064;2023-02-28T16:32:06;15.63;;;9.68;;
26113;SDS011;13966;48.828;9.064;2023-02-28T16:34:32;14.60;;;10.38;;
26113;SDS011;13966;48.828;9.064;2023-02-28T16:36:58;15.57;;;10.88;;
26113;SDS011;13966;48.828;9.064;2023-02-28T16:39:24;16.77;;;10.70;;
26113;SDS011;13966;48.828;9.064;2023-02-28T16:41:50;14.50;;;10.57;;
26113;SDS011;13966;48.828;9.064;2023-02-28T16:46:46;17.13;;;10.95;;
26113;SDS011;13966;48.828;9.064;2023-02-28T16:49:12;15.25;;;11.55;;
26113;SDS011;13966;48.828;9.064;2023-02-28T16:51:39;17.70;;;11.75;;
26113;SDS011;13966;48.828;9.064;2023-02-28T16:54:05;18.38;;;11.63;;